createdAt,value
2023-02-28T00:02:59.484Z,6.03
2023-02-28T00:08:03.255Z,6.35
2023-02-28T00:13:08.873Z,6.70
2023-02-28T00:18:12.771Z,6.15
2023-02-28T00:23:16.473Z,5.40
2023-02-28T00:28:21.736Z,5.78
2023-02-28T00:33:25.566Z,6.10
2023-02-28T00:38:31.183Z,6.32
2023-02-28T00:43:37.918Z,6.32
2023-02-28T00:48:41.695Z,6.03
2023-02-28T00:53:45.420Z,6.35
2023-02-28T00:58:50.443Z,6.25
2023-02-28T01:03:56.491Z,5.70
2023-02-28T01:09:00.598Z,5.93
2023-02-28T01:14:07.364Z,5.70
2023-02-28T01:19:11.169Z,5.55
2023-02-28T01:24:15.772Z,5.68
2023-02-28T01:29:20.873Z,6.07
2023-02-28T01:34:24.623Z,5.32
2023-02-28T01:39:28.576Z,5.68
2023-02-28T01:45:20.325Z,4.93
2023-02-28T01:50:28.048Z,5.35
2023-02-28T01:55:32.638Z,4.47
2023-02-28T02:00:37.753Z,5.00
2023-02-28T02:05:43.100Z,5.20
2023-02-28T02:10:51.235Z,5.43
2023-02-28T02:21:47.205Z,5.80
2023-02-28T02:27:06.039Z,5.28
2023-02-28T02:32:32.562Z,6.00
2023-02-28T02:37:42.800Z,5.15
2023-02-28T02:42:53.099Z,5.93
2023-02-28T02:48:01.199Z,5.20
2023-02-28T02:53:11.031Z,5.78
2023-02-28T03:03:29.960Z,5.35
2023-02-28T03:08:38.566Z,5.80
2023-02-28T03:13:53.685Z,5.05
2023-02-28T03:19:08.883Z,5.45
2023-02-28T03:24:19.561Z,4.53
2023-02-28T03:29:30.421Z,4.80
2023-02-28T03:34:38.170Z,4.93
2023-02-28T03:39:47.661Z,4.45
2023-02-28T03:44:55.825Z,5.32
2023-02-28T03:55:11.805Z,4.47
2023-02-28T04:00:22.042Z,5.10
2023-02-28T04:05:26.740Z,5.65
2023-02-28T04:10:31.877Z,4.87
2023-02-28T04:15:35.580Z,4.65
2023-02-28T04:20:39.311Z,4.87
2023-02-28T04:25:44.599Z,5.30
2023-02-28T04:30:48.280Z,4.45
2023-02-28T04:36:00.761Z,5.28
2023-02-28T04:41:06.909Z,5.18
2023-02-28T04:46:12.362Z,5.00
2023-02-28T04:51:17.684Z,5.07
2023-02-28T04:56:24.895Z,4.72
2023-02-28T05:01:30.736Z,5.20
2023-02-28T05:06:35.552Z,5.25
2023-02-28T05:11:41.551Z,5.57
2023-02-28T05:16:45.460Z,5.40
2023-02-28T05:21:54.244Z,6.03
2023-02-28T05:26:59.304Z,5.68
2023-02-28T05:32:03.093Z,5.25
2023-02-28T05:37:06.990Z,5.03
2023-02-28T05:42:12.029Z,5.53
2023-02-28T05:47:16.564Z,4.93
2023-02-28T05:52:20.264Z,4.68
2023-02-28T05:57:25.699Z,5.22
2023-02-28T06:02:29.479Z,5.65
2023-02-28T06:07:33.122Z,5.07
2023-02-28T06:12:39.012Z,4.37
2023-02-28T06:17:43.123Z,4.43
2023-02-28T06:22:47.054Z,4.72
2023-02-28T06:27:52.128Z,4.82
2023-02-28T06:32:56.255Z,4.82
2023-02-28T06:38:00.063Z,4.62
2023-02-28T06:43:05.428Z,4.22
2023-02-28T06:48:09.291Z,6.00
2023-02-28T06:53:12.986Z,4.50
2023-02-28T06:58:19.703Z,4.32
2023-02-28T07:03:24.130Z,5.12
2023-02-28T07:08:28.643Z,4.47
2023-02-28T07:13:33.705Z,5.07
2023-02-28T07:18:37.834Z,5.18
2023-02-28T07:23:42.734Z,4.55
2023-02-28T07:28:49.563Z,4.45
2023-02-28T07:33:54.448Z,4.57
2023-02-28T07:39:00.903Z,4.03
2023-02-28T07:44:06.077Z,4.20
2023-02-28T07:49:09.858Z,3.87
2023-02-28T07:54:13.550Z,3.92
2023-02-28T07:59:18.590Z,3.72
2023-02-28T08:04:22.286Z,3.15
2023-02-28T08:09:26.148Z,3.72
2023-02-28T08:14:31.315Z,3.55
2023-02-28T08:19:35.105Z,3.45
2023-02-28T08:24:38.944Z,2.90
2023-02-28T08:29:44.037Z,2.60
2023-02-28T08:34:48.082Z,2.35
2023-02-28T08:39:54.747Z,1.90
2023-02-28T08:45:01.184Z,1.48
2023-02-28T08:50:05.625Z,1.65
2023-02-28T08:55:10.432Z,1.92
2023-02-28T09:00:16.279Z,1.50
2023-02-28T09:05:20.036Z,1.50
2023-02-28T09:10:23.748Z,1.70
2023-02-28T09:15:28.785Z,1.70
2023-02-28T09:20:32.495Z,2.15
2023-02-28T09:25:36.588Z,1.60
2023-02-28T09:30:41.726Z,2.05
2023-02-28T09:35:45.604Z,1.42
2023-02-28T09:40:52.717Z,1.33
2023-02-28T09:46:04.638Z,1.23
2023-02-28T09:51:42.335Z,1.58
2023-02-28T09:56:47.490Z,1.40
2023-02-28T10:02:00.194Z,1.30
2023-02-28T10:07:18.463Z,1.70
2023-02-28T10:17:34.524Z,1.45
2023-02-28T10:22:50.834Z,1.48
2023-02-28T10:27:56.476Z,1.35
2023-02-28T10:33:01.604Z,1.30
2023-02-28T10:38:16.764Z,1.60
2023-02-28T10:43:23.355Z,1.33
2023-02-28T10:48:40.010Z,1.60
2023-02-28T10:54:00.987Z,1.30
2023-02-28T10:59:28.869Z,1.27
2023-02-28T11:04:40.351Z,1.12
2023-02-28T11:09:48.515Z,1.52
2023-02-28T11:14:55.385Z,1.45
2023-02-28T11:20:04.496Z,1.80
2023-02-28T11:25:17.605Z,1.33
2023-02-28T11:30:35.034Z,1.10
2023-02-28T11:35:41.715Z,1.30
2023-02-28T11:40:51.577Z,1.12
2023-02-28T11:46:08.379Z,1.50
2023-02-28T11:51:20.416Z,1.37
2023-02-28T11:56:33.519Z,1.40
2023-02-28T12:01:49.800Z,1.08
2023-02-28T12:07:03.627Z,1.37
2023-02-28T12:12:21.983Z,1.17
2023-02-28T12:17:45.529Z,1.23
2023-02-28T12:23:02.813Z,1.15
2023-02-28T12:28:07.093Z,1.47
2023-02-28T12:33:14.666Z,1.33
2023-02-28T12:38:24.139Z,1.15
2023-02-28T12:43:35.040Z,1.20
2023-02-28T12:48:44.407Z,1.25
2023-02-28T12:54:10.545Z,1.00
2023-02-28T12:59:24.445Z,1.30
2023-02-28T13:04:52.402Z,1.33
2023-02-28T13:15:12.884Z,1.35
2023-02-28T13:20:19.601Z,1.25
2023-02-28T13:25:58.646Z,1.20
2023-02-28T13:31:05.968Z,1.40
2023-02-28T13:36:13.327Z,1.57
2023-02-28T13:41:53.401Z,1.13
2023-02-28T13:47:25.491Z,1.30
2023-02-28T13:52:29.618Z,1.27
2023-02-28T13:57:46.539Z,1.42
2023-02-28T14:03:09.953Z,1.75
2023-02-28T14:08:18.787Z,1.30
2023-02-28T14:13:50.110Z,1.30
2023-02-28T14:19:02.648Z,1.37
2023-02-28T14:24:48.772Z,1.62
2023-02-28T14:30:38.878Z,1.40
2023-02-28T14:35:56.255Z,1.60
2023-02-28T14:41:05.426Z,1.50
2023-02-28T14:46:09.261Z,1.25
2023-02-28T14:51:20.280Z,1.62
2023-02-28T14:56:28.177Z,1.50
2023-02-28T15:01:32.980Z,1.60
2023-02-28T15:06:38.149Z,1.80
2023-02-28T15:11:42.329Z,1.33
2023-02-28T15:16:51.091Z,2.00
2023-02-28T15:22:00.552Z,1.80
2023-02-28T15:27:08.599Z,1.50
2023-02-28T15:32:26.972Z,1.83
2023-02-28T15:37:40.640Z,1.80
2023-02-28T15:42:45.769Z,1.58
2023-02-28T15:47:49.910Z,1.98
2023-02-28T15:52:54.993Z,1.98
2023-02-28T15:58:02.227Z,2.25
2023-02-28T16:03:27.515Z,2.00
2023-02-28T16:08:32.516Z,2.17
2023-02-28T16:13:36.323Z,2.17
2023-02-28T16:18:40.026Z,2.10
2023-02-28T16:23:45.212Z,2.15
2023-02-28T16:28:49.226Z,2.10
2023-02-28T16:33:52.918Z,2.30
2023-02-28T16:38:58.070Z,2.17
2023-02-28T16:44:02.474Z,2.05
2023-02-28T16:49:06.327Z,2.25
2023-02-28T16:54:11.432Z,1.87
2023-02-28T16:59:17.165Z,2.00
2023-02-28T17:04:20.912Z,1.80
2023-02-28T17:09:36.753Z,2.22
2023-02-28T17:14:45.557Z,2.17
2023-02-28T17:19:49.734Z,2.25
2023-02-28T17:24:56.822Z,2.33
2023-02-28T17:30:00.889Z,2.22
2023-02-28T17:35:04.770Z,2.20
2023-02-28T17:40:15.813Z,2.47
2023-02-28T17:45:19.686Z,2.55
2023-02-28T17:50:24.020Z,2.30
2023-02-28T17:55:29.142Z,2.58
2023-02-28T18:00:34.453Z,2.85
2023-02-28T18:05:38.353Z,2.47
2023-02-28T18:10:43.509Z,3.05
2023-02-28T18:15:48.379Z,2.55
2023-02-28T18:20:53.176Z,2.92
2023-02-28T18:25:58.784Z,2.97
2023-02-28T18:31:07.300Z,2.80
2023-02-28T18:36:11.437Z,2.83
2023-02-28T18:41:16.469Z,3.20
2023-02-28T18:46:21.217Z,3.45
2023-02-28T18:51:26.716Z,3.42
2023-02-28T18:56:31.972Z,3.20
2023-02-28T19:01:36.380Z,3.25
2023-02-28T19:06:40.135Z,3.22
2023-02-28T19:11:45.243Z,3.90
2023-02-28T19:16:50.254Z,4.57
2023-02-28T19:21:55.515Z,5.37
2023-02-28T19:27:01.207Z,5.65
2023-02-28T19:32:05.103Z,5.28
2023-02-28T19:37:08.997Z,6.00
2023-02-28T19:42:15.698Z,5.45
2023-02-28T19:47:19.382Z,6.05
2023-02-28T19:52:23.485Z,5.30
2023-02-28T19:57:28.701Z,4.85
2023-02-28T20:02:32.388Z,4.55
2023-02-28T20:07:36.879Z,4.37
2023-02-28T20:12:41.902Z,4.68
2023-02-28T20:17:46.737Z,4.10
2023-02-28T20:22:50.707Z,4.18
2023-02-28T20:27:55.775Z,4.45
2023-02-28T20:32:59.501Z,4.53
2023-02-28T20:38:03.256Z,5.37
2023-02-28T20:43:08.352Z,5.37
2023-02-28T20:48:12.100Z,5.20
2023-02-28T20:53:15.865Z,4.65
2023-02-28T20:58:20.886Z,5.68
2023-02-28T21:03:24.621Z,5.65
2023-02-28T21:08:28.322Z,6.03
2023-02-28T21:13:33.367Z,6.85
2023-02-28T21:18:38.117Z,6.05
2023-02-28T21:23:42.288Z,5.55
2023-02-28T21:28:50.433Z,6.70
2023-02-28T21:33:55.142Z,5.90
2023-02-28T21:39:01.155Z,6.47
2023-02-28T21:44:06.594Z,5.87
2023-02-28T21:49:10.363Z,6.28
2023-02-28T21:54:14.650Z,6.65
2023-02-28T21:59:20.519Z,7.03
2023-02-28T22:04:24.367Z,6.40
2023-02-28T22:09:28.873Z,6.22
2023-02-28T22:14:34.017Z,6.90
2023-02-28T22:19:37.858Z,7.32
2023-02-28T22:24:41.689Z,7.45
2023-02-28T22:29:48.747Z,7.53
2023-02-28T22:34:52.613Z,6.97
2023-02-28T22:39:56.353Z,8.25
2023-02-28T22:45:01.386Z,8.70
2023-02-28T22:50:05.742Z,8.77
2023-02-28T22:55:10.930Z,8.27
2023-02-28T23:00:16.756Z,7.47
2023-02-28T23:05:20.490Z,7.78
2023-02-28T23:10:24.182Z,8.32
2023-02-28T23:15:29.305Z,7.53
2023-02-28T23:20:32.983Z,7.18
2023-02-28T23:25:37.721Z,7.35
2023-02-28T23:30:42.755Z,7.03
2023-02-28T23:35:46.437Z,7.70
2023-02-28T23:40:50.127Z,7.47
2023-02-28T23:45:57.712Z,7.78
2023-02-28T23:51:02.679Z,8.02
2023-02-28T23:56:07.497Z,8.63
